Terminal Aerodrome Forecast
Issued by NWS Louisville, KY

Home | Current Version | Previous Version | Text Only | Print | Product List | Glossary On
Versions: 1 2 3 4 5 6 7 8 9 10 11 12 13 14 15
000
FTUS43 KLMK 250500
TAFLEX
TAF
KLEX 250520Z 2506/2606 16012KT P6SM VCSH BKN050
      TEMPO 2509/2511 VRB12G24KT 3SM -TSRA BR OVC040CB
     FM251100 21013KT P6SM VCSH BKN030
     FM251400 25014G20KT P6SM BKN025
     FM251700 28016G24KT P6SM BKN035
     FM252100 30013G20KT P6SM SKC
     FM260000 VRB05KT P6SM SKC=

USA.gov is the U.S. government's official web portal to all federal, state and local government web resources and services.